createdAt,value
2019-04-01T00:00:52.695Z,4.38
2019-04-01T00:03:21.026Z,4.38
2019-04-01T00:05:49.307Z,4.37
2019-04-01T00:08:17.616Z,4.34
2019-04-01T00:10:45.907Z,4.31
2019-04-01T00:13:14.224Z,4.26
2019-04-01T00:15:42.508Z,4.24
2019-04-01T00:18:10.814Z,4.18
2019-04-01T00:20:39.431Z,4.16
2019-04-01T00:23:07.876Z,4.12
2019-04-01T00:25:36.276Z,4.07
2019-04-01T00:28:04.633Z,4.06
2019-04-01T00:30:32.928Z,4.01
2019-04-01T00:33:01.230Z,4.00
2019-04-01T00:35:29.547Z,4.00
2019-04-01T00:37:57.845Z,4.02
2019-04-01T00:40:26.214Z,3.98
2019-04-01T00:42:56.171Z,3.96
2019-04-01T00:45:26.408Z,3.93
2019-04-01T00:47:54.718Z,3.91
2019-04-01T00:50:23.023Z,3.86
2019-04-01T00:52:51.654Z,3.82
2019-04-01T00:55:20.220Z,3.79
2019-04-01T00:57:48.503Z,3.74
2019-04-01T01:00:17.960Z,3.70
2019-04-01T01:02:46.589Z,3.67
2019-04-01T01:05:14.888Z,3.66
2019-04-01T01:07:43.195Z,3.66
2019-04-01T01:10:11.782Z,3.68
2019-04-01T01:12:40.310Z,3.66
2019-04-01T01:15:08.701Z,3.64
2019-04-01T01:17:37.283Z,3.62
2019-04-01T01:20:06.745Z,3.62
2019-04-01T01:22:35.060Z,3.60
2019-04-01T01:25:04.343Z,3.57
2019-04-01T01:27:32.931Z,3.55
2019-04-01T01:30:01.220Z,3.56
2019-04-01T01:32:29.619Z,3.55
2019-04-01T01:34:58.014Z,3.58
2019-04-01T01:37:27.072Z,3.57
2019-04-01T01:39:56.421Z,3.54
2019-04-01T01:42:24.701Z,3.55
2019-04-01T01:44:53.033Z,3.50
2019-04-01T01:47:21.310Z,3.44
2019-04-01T01:49:49.981Z,3.47
2019-04-01T01:52:18.277Z,3.50
2019-04-01T01:54:46.612Z,3.48
2019-04-01T01:57:15.215Z,3.44
2019-04-01T01:59:43.542Z,3.41
2019-04-01T02:02:11.838Z,3.43
2019-04-01T02:04:40.141Z,3.37
2019-04-01T02:07:08.454Z,3.36
2019-04-01T02:09:36.847Z,3.34
2019-04-01T02:12:05.140Z,3.37
2019-04-01T02:14:33.781Z,3.33
2019-04-01T02:17:02.058Z,3.30
2019-04-01T02:19:30.360Z,3.30
2019-04-01T02:21:58.638Z,3.34
2019-04-01T02:24:26.953Z,3.33
2019-04-01T02:26:55.247Z,3.41
2019-04-01T02:29:23.542Z,3.36
2019-04-01T02:31:51.837Z,3.27
2019-04-01T02:34:20.176Z,3.24
2019-04-01T02:36:48.778Z,3.24
2019-04-01T02:39:17.085Z,3.20
2019-04-01T02:41:45.387Z,3.20
2019-04-01T02:44:13.919Z,3.15
2019-04-01T02:46:42.228Z,3.12
2019-04-01T02:49:10.554Z,3.11
2019-04-01T02:51:38.872Z,3.07
2019-04-01T02:54:07.163Z,3.07
2019-04-01T02:56:35.479Z,3.06
2019-04-01T02:59:03.785Z,3.08
2019-04-01T03:01:32.095Z,3.03
2019-04-01T03:04:00.401Z,3.08
2019-04-01T03:06:28.708Z,3.01
2019-04-01T03:08:56.986Z,3.02
2019-04-01T03:11:25.261Z,3.02
2019-04-01T03:13:53.579Z,2.95
2019-04-01T03:16:21.888Z,2.91
2019-04-01T03:18:50.327Z,2.90
2019-04-01T03:21:18.669Z,2.84
2019-04-01T03:23:46.997Z,2.86
2019-04-01T03:26:15.300Z,2.84
2019-04-01T03:28:43.908Z,2.82
2019-04-01T03:31:12.308Z,2.82
2019-04-01T03:33:40.631Z,2.80
2019-04-01T03:36:09.083Z,2.79
2019-04-01T03:38:37.639Z,2.76
2019-04-01T03:41:06.497Z,2.78
2019-04-01T03:43:34.809Z,2.79
2019-04-01T03:46:03.106Z,2.78
2019-04-01T03:48:31.387Z,2.79
2019-04-01T03:50:59.680Z,2.72
2019-04-01T03:53:27.989Z,2.67
2019-04-01T03:55:56.308Z,2.65
2019-04-01T03:58:24.589Z,2.69
2019-04-01T04:00:52.905Z,2.69
2019-04-01T04:03:21.196Z,2.71
2019-04-01T04:05:49.777Z,2.71
2019-04-01T04:08:18.080Z,2.68
2019-04-01T04:10:46.497Z,2.67
2019-04-01T04:13:14.766Z,2.69
2019-04-01T04:15:43.150Z,2.69
2019-04-01T04:18:12.279Z,2.65
2019-04-01T04:20:40.592Z,2.66
2019-04-01T04:23:09.145Z,2.65
2019-04-01T04:25:37.715Z,2.69
2019-04-01T04:28:06.012Z,2.73
2019-04-01T04:30:34.318Z,2.74
2019-04-01T04:33:02.618Z,2.68
2019-04-01T04:35:30.939Z,2.65
2019-04-01T04:37:59.213Z,2.62
2019-04-01T04:40:27.524Z,2.67
2019-04-01T04:42:55.834Z,2.71
2019-04-01T04:45:24.454Z,2.74
2019-04-01T04:47:52.737Z,2.72
2019-04-01T04:50:21.023Z,2.65
2019-04-01T04:52:49.335Z,2.64
2019-04-01T04:55:17.638Z,2.61
2019-04-01T04:57:46.240Z,2.57
2019-04-01T05:00:14.705Z,2.56
2019-04-01T05:02:43.009Z,2.54
2019-04-01T05:05:11.303Z,2.57
2019-04-01T05:07:39.611Z,2.58
2019-04-01T05:10:08.168Z,2.57
2019-04-01T05:12:36.464Z,2.57
2019-04-01T05:15:06.709Z,2.62
2019-04-01T05:17:35.276Z,2.58
2019-04-01T05:20:05.478Z,2.58
2019-04-01T05:22:34.561Z,2.64
2019-04-01T05:25:04.091Z,2.64
2019-04-01T05:27:32.656Z,2.69
2019-04-01T05:30:01.015Z,2.71
2019-04-01T05:32:30.669Z,2.78
2019-04-01T05:35:00.633Z,2.86
2019-04-01T05:39:01.183Z,2.82
2019-04-01T05:41:29.565Z,2.82
2019-04-01T05:43:58.189Z,2.89
2019-04-01T05:46:26.552Z,2.93
2019-04-01T05:48:54.863Z,2.95
2019-04-01T05:51:23.224Z,2.98
2019-04-01T05:53:51.531Z,3.06
2019-04-01T05:56:19.827Z,3.15
2019-04-01T05:58:48.513Z,3.23
2019-04-01T06:01:18.717Z,3.31
2019-04-01T06:03:47.048Z,3.35
2019-04-01T06:06:15.699Z,3.41
2019-04-01T06:08:44.259Z,3.44
2019-04-01T06:11:12.553Z,3.43
2019-04-01T06:13:40.891Z,3.43
2019-04-01T06:16:09.248Z,3.45
2019-04-01T06:18:37.704Z,3.43
2019-04-01T06:21:06.079Z,3.48
2019-04-01T06:23:34.446Z,3.52
2019-04-01T06:26:02.906Z,3.59
2019-04-01T06:28:31.195Z,3.61
2019-04-01T06:30:59.876Z,3.62
2019-04-01T06:33:28.700Z,3.69
2019-04-01T06:35:57.274Z,3.80
2019-04-01T06:38:25.839Z,3.89
2019-04-01T06:40:54.155Z,3.98
2019-04-01T06:43:22.473Z,4.10
2019-04-01T06:45:50.746Z,4.26
2019-04-01T06:48:19.049Z,4.39
2019-04-01T06:50:47.345Z,4.44
2019-04-01T06:53:15.732Z,4.42
2019-04-01T06:55:44.392Z,4.48
2019-04-01T06:58:12.778Z,4.55
2019-04-01T07:00:41.053Z,4.57
2019-04-01T07:03:09.432Z,4.62
2019-04-01T07:05:37.821Z,4.68
2019-04-01T07:08:06.142Z,4.79
2019-04-01T07:10:34.969Z,4.91
2019-04-01T07:13:03.378Z,5.02
2019-04-01T07:15:31.711Z,5.12
2019-04-01T07:18:00.095Z,5.27
2019-04-01T07:20:28.779Z,5.40
2019-04-01T07:22:57.038Z,5.51
2019-04-01T07:25:25.639Z,5.52
2019-04-01T07:27:54.344Z,5.58
2019-04-01T07:30:22.796Z,5.62
2019-04-01T07:32:51.104Z,5.72
2019-04-01T07:35:19.494Z,5.82
2019-04-01T07:37:47.866Z,5.91
2019-04-01T07:40:16.529Z,6.00
2019-04-01T07:42:44.819Z,6.12
2019-04-01T07:45:13.488Z,6.25
2019-04-01T07:47:41.773Z,6.33
2019-04-01T07:50:12.501Z,6.43
2019-04-01T07:52:41.193Z,6.54
2019-04-01T07:55:09.660Z,6.63
2019-04-01T07:57:38.374Z,6.74
2019-04-01T08:00:07.250Z,6.76
2019-04-01T08:02:35.625Z,6.77
2019-04-01T08:05:04.843Z,6.90
2019-04-01T08:07:33.401Z,7.00
2019-04-01T08:10:01.693Z,7.05
2019-04-01T08:12:30.272Z,7.11
2019-04-01T08:14:58.557Z,7.24
2019-04-01T08:17:26.867Z,7.34
2019-04-01T08:19:55.226Z,7.44
2019-04-01T08:22:23.549Z,7.53
2019-04-01T08:24:51.846Z,7.51
2019-04-01T08:27:20.176Z,7.49
2019-04-01T08:29:48.493Z,7.49
2019-04-01T08:32:16.805Z,7.56
2019-04-01T08:34:45.199Z,7.58
2019-04-01T08:37:13.555Z,7.66
2019-04-01T08:39:41.862Z,7.84
2019-04-01T08:42:10.337Z,7.92
2019-04-01T08:44:38.998Z,7.93
2019-04-01T08:47:07.598Z,7.92
2019-04-01T08:49:35.940Z,7.92
2019-04-01T08:52:04.728Z,7.94
2019-04-01T08:54:33.029Z,8.01
2019-04-01T08:57:01.377Z,8.11
2019-04-01T08:59:29.713Z,8.17
2019-04-01T09:01:58.065Z,8.21
2019-04-01T09:04:26.377Z,8.31
2019-04-01T09:06:55.014Z,8.37
2019-04-01T09:09:24.258Z,8.48
2019-04-01T09:11:54.109Z,8.45
2019-04-01T09:14:23.118Z,8.55
2019-04-01T09:16:51.959Z,8.68
2019-04-01T09:19:20.244Z,8.76
2019-04-01T09:21:48.809Z,8.77
2019-04-01T09:24:17.132Z,8.77
2019-04-01T09:26:45.435Z,8.87
2019-04-01T09:29:13.731Z,8.87
2019-04-01T09:31:42.124Z,8.90
2019-04-01T09:34:10.421Z,9.03
2019-04-01T09:36:39.035Z,9.07
2019-04-01T09:39:07.942Z,9.13
2019-04-01T09:41:36.228Z,9.13
2019-04-01T09:44:04.619Z,9.19
2019-04-01T09:46:32.993Z,9.23
2019-04-01T09:49:01.636Z,9.25
2019-04-01T09:51:30.242Z,9.37
2019-04-01T09:53:58.628Z,9.48
2019-04-01T09:56:27.180Z,9.48
2019-04-01T09:58:55.775Z,9.55
2019-04-01T10:01:24.349Z,9.60
2019-04-01T10:03:52.664Z,9.63
2019-04-01T10:06:20.948Z,9.66
2019-04-01T10:08:49.255Z,9.68
2019-04-01T10:11:17.824Z,9.73
2019-04-01T10:13:46.209Z,9.78
2019-04-01T10:16:14.833Z,9.88
2019-04-01T10:18:43.150Z,9.93
2019-04-01T10:21:11.514Z,9.97
2019-04-01T10:23:39.899Z,10.00
2019-04-01T10:26:08.202Z,10.07
2019-04-01T10:28:36.545Z,10.14
2019-04-01T10:31:05.001Z,10.24
2019-04-01T10:33:33.679Z,10.31
2019-04-01T10:36:02.267Z,10.45
2019-04-01T10:38:30.558Z,10.53
2019-04-01T10:40:58.967Z,10.56
2019-04-01T10:43:27.266Z,10.61
2019-04-01T10:45:55.883Z,10.63
2019-04-01T10:48:24.227Z,10.69
2019-04-01T10:50:52.689Z,10.67
2019-04-01T10:53:21.085Z,10.68
2019-04-01T10:55:49.404Z,10.70
2019-04-01T10:58:18.035Z,10.95
2019-04-01T11:00:46.452Z,10.91
2019-04-01T11:03:15.108Z,10.94
2019-04-01T11:05:43.447Z,11.04
2019-04-01T11:08:12.227Z,11.02
2019-04-01T11:10:40.493Z,11.04
2019-04-01T11:13:08.794Z,11.05
2019-04-01T11:15:37.113Z,11.13
2019-04-01T11:18:05.436Z,11.22
2019-04-01T11:20:33.757Z,11.29
2019-04-01T11:23:02.815Z,11.38
2019-04-01T11:25:31.831Z,11.37
2019-04-01T11:28:00.122Z,11.33
2019-04-01T11:30:28.444Z,11.30
2019-04-01T11:32:56.766Z,11.32
2019-04-01T11:35:25.073Z,11.34
2019-04-01T11:37:53.349Z,11.44
2019-04-01T11:40:21.680Z,11.47
2019-04-01T11:42:50.025Z,11.50
2019-04-01T11:45:18.310Z,11.59
2019-04-01T11:47:46.613Z,11.74
2019-04-01T11:50:15.106Z,11.79
2019-04-01T11:52:43.770Z,11.75
2019-04-01T11:55:12.121Z,11.81
2019-04-01T11:57:40.979Z,11.83
2019-04-01T12:00:13.263Z,11.86
2019-04-01T12:02:42.181Z,11.93
2019-04-01T12:05:10.972Z,11.97
2019-04-01T12:07:39.324Z,11.95
2019-04-01T12:10:08.325Z,11.95
2019-04-01T12:12:36.628Z,12.05
2019-04-01T12:15:06.550Z,12.21
2019-04-01T12:17:35.338Z,12.27
2019-04-01T12:20:04.521Z,12.32
2019-04-01T12:22:32.811Z,12.28
2019-04-01T12:25:01.143Z,12.33
2019-04-01T12:27:29.437Z,12.39
2019-04-01T12:29:58.236Z,12.45
2019-04-01T12:32:26.546Z,12.57
2019-04-01T12:34:54.901Z,12.57
2019-04-01T12:37:23.196Z,12.55
2019-04-01T12:39:51.543Z,12.54
2019-04-01T12:42:19.853Z,12.53
2019-04-01T12:44:48.164Z,12.60
2019-04-01T12:47:16.799Z,12.65
2019-04-01T12:49:45.105Z,12.71
2019-04-01T12:52:13.856Z,12.83
2019-04-01T12:54:42.140Z,12.75
2019-04-01T12:57:10.815Z,12.79
2019-04-01T12:59:39.122Z,12.81
2019-04-01T13:02:07.780Z,12.84
2019-04-01T13:04:36.301Z,12.81
2019-04-01T13:07:05.240Z,12.90
2019-04-01T13:09:33.875Z,12.92
2019-04-01T13:12:02.261Z,12.94
2019-04-01T13:14:30.595Z,12.92
2019-04-01T13:16:58.919Z,12.98
2019-04-01T13:19:27.562Z,13.07
2019-04-01T13:21:55.863Z,13.10
2019-04-01T13:24:24.153Z,13.06
2019-04-01T13:26:52.475Z,13.07
2019-04-01T13:29:20.783Z,13.16
2019-04-01T13:31:49.148Z,13.12
2019-04-01T13:34:20.125Z,13.25
2019-04-01T13:36:47.604Z,13.28
2019-04-01T13:39:15.958Z,13.22
2019-04-01T13:41:45.492Z,13.23
2019-04-01T13:44:14.415Z,13.30
2019-04-01T13:46:42.994Z,13.39
2019-04-01T13:49:11.318Z,13.52
2019-04-01T13:51:43.031Z,13.60
2019-04-01T13:54:11.426Z,13.55
2019-04-01T13:56:40.398Z,13.60
2019-04-01T13:59:09.965Z,13.63
2019-04-01T14:01:39.108Z,13.64
2019-04-01T14:04:07.432Z,13.59
2019-04-01T14:06:35.755Z,13.61
2019-04-01T14:09:06.243Z,13.75
2019-04-01T14:11:34.592Z,13.67
2019-04-01T14:14:02.990Z,13.63
2019-04-01T14:16:31.292Z,13.58
2019-04-01T14:18:59.595Z,13.59
2019-04-01T14:21:27.936Z,13.64
2019-04-01T14:23:56.238Z,13.70
2019-04-01T14:26:24.547Z,13.77
2019-04-01T14:28:53.010Z,13.90
2019-04-01T14:31:21.337Z,13.91
2019-04-01T14:33:49.627Z,13.98
2019-04-01T14:36:17.929Z,14.02
2019-04-01T14:38:46.271Z,14.02
2019-04-01T14:41:14.527Z,14.01
2019-04-01T14:43:42.827Z,13.96
2019-04-01T14:46:11.214Z,13.97
2019-04-01T14:48:40.085Z,13.96
2019-04-01T14:51:08.843Z,14.01
2019-04-01T14:53:37.951Z,14.01
2019-04-01T14:56:06.491Z,14.03
2019-04-01T14:58:34.821Z,14.02
2019-04-01T15:01:03.135Z,14.06
2019-04-01T15:03:31.745Z,14.06
2019-04-01T15:06:00.334Z,14.12
2019-04-01T15:08:28.651Z,14.17
2019-04-01T15:10:57.305Z,14.21
2019-04-01T15:13:25.624Z,14.15
2019-04-01T15:15:54.172Z,14.15
2019-04-01T15:18:22.830Z,14.22
2019-04-01T15:20:51.127Z,14.27
2019-04-01T15:23:19.802Z,14.31
2019-04-01T15:25:48.089Z,14.33
2019-04-01T15:28:16.407Z,14.26
2019-04-01T15:30:44.759Z,14.22
2019-04-01T15:33:13.112Z,14.21
2019-04-01T15:35:41.687Z,14.17
2019-04-01T15:38:10.384Z,14.22
2019-04-01T15:40:38.671Z,14.30
2019-04-01T15:43:06.966Z,14.23
2019-04-01T15:45:35.740Z,14.17
2019-04-01T15:48:04.135Z,14.14
2019-04-01T15:50:32.449Z,14.21
2019-04-01T15:53:01.014Z,14.20
2019-04-01T15:55:29.316Z,14.22
2019-04-01T15:57:57.627Z,14.19
2019-04-01T16:00:25.918Z,14.17
2019-04-01T16:02:54.230Z,14.23
2019-04-01T16:05:22.562Z,14.23
2019-04-01T16:07:50.852Z,14.18
2019-04-01T16:10:20.966Z,14.23
2019-04-01T16:12:49.322Z,14.16
2019-04-01T16:15:17.738Z,14.12
2019-04-01T16:17:46.391Z,14.07
2019-04-01T16:20:14.855Z,14.05
2019-04-01T16:22:43.787Z,14.01
2019-04-01T16:25:13.420Z,13.99
2019-04-01T16:27:43.070Z,13.98
2019-04-01T16:30:11.538Z,13.97
2019-04-01T16:32:39.883Z,13.95
2019-04-01T16:35:08.286Z,13.94
2019-04-01T16:37:36.621Z,13.91
2019-04-01T16:40:06.306Z,13.84
2019-04-01T16:42:34.730Z,13.82
2019-04-01T16:45:04.897Z,13.79
2019-04-01T16:47:33.215Z,13.77
2019-04-01T16:50:01.537Z,13.72
2019-04-01T16:52:30.147Z,13.67
2019-04-01T16:55:00.907Z,13.63
2019-04-01T16:57:29.467Z,13.60
2019-04-01T16:59:57.759Z,13.59
2019-04-01T17:02:26.082Z,13.54
2019-04-01T17:04:54.396Z,13.54
2019-04-01T17:07:22.794Z,13.51
2019-04-01T17:09:51.090Z,13.48
2019-04-01T17:12:19.385Z,13.48
2019-04-01T17:14:47.706Z,13.44
2019-04-01T17:17:16.001Z,13.40
2019-04-01T17:19:44.577Z,13.35
2019-04-01T17:22:12.864Z,13.29
2019-04-01T17:24:41.183Z,13.22
2019-04-01T17:27:11.999Z,13.20
2019-04-01T17:29:42.606Z,13.14
2019-04-01T17:32:10.901Z,13.09
2019-04-01T17:34:39.226Z,13.02
2019-04-01T17:37:08.291Z,12.94
2019-04-01T17:39:37.520Z,12.86
2019-04-01T17:42:06.341Z,12.82
2019-04-01T17:44:34.736Z,12.77
2019-04-01T17:47:03.025Z,12.73
2019-04-01T17:49:31.440Z,12.70
2019-04-01T17:51:59.719Z,12.61
2019-04-01T17:54:28.298Z,12.55
2019-04-01T17:56:56.602Z,12.49
2019-04-01T17:59:25.294Z,12.42
2019-04-01T18:01:56.862Z,12.36
2019-04-01T18:04:23.717Z,12.31
2019-04-01T18:06:52.098Z,12.27
2019-04-01T18:09:20.450Z,12.23
2019-04-01T18:11:48.772Z,12.18
2019-04-01T18:14:17.065Z,12.11
2019-04-01T18:16:45.395Z,12.05
2019-04-01T18:19:13.672Z,11.96
2019-04-01T18:21:42.001Z,11.91
2019-04-01T18:24:10.355Z,11.88
2019-04-01T18:26:39.070Z,11.83
2019-04-01T18:29:07.374Z,11.81
2019-04-01T18:31:35.666Z,11.79
2019-04-01T18:34:04.001Z,11.75
2019-04-01T18:36:34.837Z,11.70
2019-04-01T18:39:03.958Z,11.65
2019-04-01T18:41:33.204Z,11.58
2019-04-01T18:44:02.341Z,11.55
2019-04-01T18:46:30.736Z,11.49
2019-04-01T18:48:59.019Z,11.45
2019-04-01T18:51:27.348Z,11.41
2019-04-01T18:53:55.666Z,11.43
2019-04-01T18:56:24.000Z,11.38
2019-04-01T18:58:53.139Z,11.33
2019-04-01T19:01:22.395Z,11.26
2019-04-01T19:03:50.688Z,11.21
2019-04-01T19:06:19.015Z,11.15
2019-04-01T19:08:47.335Z,11.11
2019-04-01T19:11:15.672Z,11.06
2019-04-01T19:13:43.984Z,11.01
2019-04-01T19:16:15.468Z,10.97
2019-04-01T19:18:42.645Z,10.93
2019-04-01T19:21:10.972Z,10.88
2019-04-01T19:23:39.283Z,10.82
2019-04-01T19:26:10.060Z,10.76
2019-04-01T19:28:37.731Z,10.72
2019-04-01T19:31:06.025Z,10.67
2019-04-01T19:33:34.342Z,10.61
2019-04-01T19:36:02.737Z,10.57
2019-04-01T19:38:31.064Z,10.51
2019-04-01T19:40:59.910Z,10.48
2019-04-01T19:43:28.499Z,10.44
2019-04-01T19:45:57.122Z,10.39
2019-04-01T19:48:25.418Z,10.34
2019-04-01T19:50:53.726Z,10.31
2019-04-01T19:53:22.104Z,10.27
2019-04-01T19:55:50.415Z,10.23
2019-04-01T19:58:18.738Z,10.20
2019-04-01T20:00:47.106Z,10.16
2019-04-01T20:03:15.782Z,10.13
2019-04-01T20:05:44.096Z,10.10
2019-04-01T20:08:14.098Z,10.08
2019-04-01T20:10:42.700Z,10.05
2019-04-01T20:13:11.019Z,10.01
2019-04-01T20:15:40.349Z,9.96
2019-04-01T20:18:09.373Z,9.92
2019-04-01T20:20:37.687Z,9.91
2019-04-01T20:23:05.989Z,9.89
2019-04-01T20:25:34.288Z,9.86
2019-04-01T20:28:02.596Z,9.88
2019-04-01T20:30:31.221Z,9.85
2019-04-01T20:32:59.624Z,9.82
2019-04-01T20:35:28.329Z,9.78
2019-04-01T20:37:58.276Z,9.76
2019-04-01T20:40:26.649Z,9.76
2019-04-01T20:42:54.953Z,9.73
2019-04-01T20:45:23.624Z,9.70
2019-04-01T20:47:51.920Z,9.73
2019-04-01T20:50:20.253Z,9.78
2019-04-01T20:52:50.089Z,9.78
2019-04-01T20:55:18.636Z,9.76
2019-04-01T20:57:46.919Z,9.68
2019-04-01T21:00:15.497Z,9.61
2019-04-01T21:02:44.057Z,9.55
2019-04-01T21:05:12.435Z,9.53
2019-04-01T21:07:40.713Z,9.49
2019-04-01T21:10:09.562Z,9.43
2019-04-01T21:12:38.158Z,9.37
2019-04-01T21:15:08.181Z,9.30
2019-04-01T21:17:36.583Z,9.27
2019-04-01T21:20:07.908Z,9.26
2019-04-01T21:22:36.906Z,9.21
2019-04-01T21:25:06.752Z,9.15
2019-04-01T21:27:35.049Z,9.10
2019-04-01T21:30:04.982Z,9.06
2019-04-01T21:32:33.285Z,9.02
2019-04-01T21:35:01.588Z,8.93
2019-04-01T21:37:29.968Z,8.88
2019-04-01T21:39:59.153Z,8.83
2019-04-01T21:42:27.853Z,8.80
2019-04-01T21:44:56.160Z,8.76
2019-04-01T21:47:24.471Z,8.70
2019-04-01T21:49:53.041Z,8.66
2019-04-01T21:52:21.856Z,8.61
2019-04-01T21:54:50.137Z,8.56
2019-04-01T21:57:20.545Z,8.50
2019-04-01T21:59:48.987Z,8.44
2019-04-01T22:02:17.285Z,8.39
2019-04-01T22:04:45.608Z,8.33
2019-04-01T22:07:14.180Z,8.30
2019-04-01T22:09:42.479Z,8.32
2019-04-01T22:12:10.777Z,8.33
2019-04-01T22:14:39.102Z,8.33
2019-04-01T22:17:07.386Z,8.29
2019-04-01T22:19:35.691Z,8.23
2019-04-01T22:22:03.998Z,8.23
2019-04-01T22:24:33.027Z,8.21
2019-04-01T22:27:02.215Z,8.18
2019-04-01T22:29:30.527Z,8.13
2019-04-01T22:31:58.826Z,8.09
2019-04-01T22:34:27.107Z,8.06
2019-04-01T22:36:55.701Z,8.07
2019-04-01T22:39:27.319Z,8.01
2019-04-01T22:41:54.311Z,8.00
2019-04-01T22:44:23.358Z,7.92
2019-04-01T22:46:52.201Z,7.89
2019-04-01T22:49:20.789Z,7.84
2019-04-01T22:51:49.373Z,7.85
2019-04-01T22:54:17.663Z,7.78
2019-04-01T22:56:45.965Z,7.72
2019-04-01T22:59:14.526Z,7.64
2019-04-01T23:01:44.172Z,7.62
2019-04-01T23:04:13.374Z,7.63
2019-04-01T23:06:42.001Z,7.60
2019-04-01T23:09:10.590Z,7.57
2019-04-01T23:11:38.921Z,7.50
2019-04-01T23:14:07.563Z,7.49
2019-04-01T23:16:35.875Z,7.48
2019-04-01T23:19:05.068Z,7.49
2019-04-01T23:21:33.564Z,7.45
2019-04-01T23:24:01.890Z,7.43
2019-04-01T23:26:30.204Z,7.41
2019-04-01T23:28:58.494Z,7.40
2019-04-01T23:31:26.795Z,7.38
2019-04-01T23:33:55.110Z,7.37
2019-04-01T23:36:23.418Z,7.36
2019-04-01T23:38:51.800Z,7.33
2019-04-01T23:41:20.102Z,7.36
2019-04-01T23:43:48.417Z,7.34
2019-04-01T23:46:16.745Z,7.30
2019-04-01T23:48:45.053Z,7.30
2019-04-01T23:51:13.343Z,7.26
2019-04-01T23:53:41.662Z,7.20
2019-04-01T23:56:10.010Z,7.17
2019-04-01T23:58:38.305Z,7.13
